sensor_id;sensor_type;location;lat;lon;timestamp;temperature;humidity
51878;SHT31;37911;51.526;11.536;2022-09-09T00:01:46;15.07;82.14
51878;SHT31;37911;51.526;11.536;2022-09-09T00:04:58;15.00;82.69
51878;SHT31;37911;51.526;11.536;2022-09-09T00:08:03;14.95;82.61
51878;SHT31;37911;51.526;11.536;2022-09-09T00:11:08;14.99;82.35
51878;SHT31;37911;51.526;11.536;2022-09-09T00:14:22;14.99;82.31
51878;SHT31;37911;51.526;11.536;2022-09-09T00:17:35;14.97;82.09
51878;SHT31;37911;51.526;11.536;2022-09-09T00:20:47;15.00;82.22
51878;SHT31;37911;51.526;11.536;2022-09-09T00:23:53;15.00;81.98
51878;SHT31;37911;51.526;11.536;2022-09-09T00:27:01;15.02;81.64
51878;SHT31;37911;51.526;11.536;2022-09-09T00:30:15;14.99;81.89
51878;SHT31;37911;51.526;11.536;2022-09-09T00:33:22;14.95;82.27
51878;SHT31;37911;51.526;11.536;2022-09-09T00:36:31;14.93;82.22
51878;SHT31;37911;51.526;11.536;2022-09-09T00:39:38;14.95;81.92
51878;SHT31;37911;51.526;11.536;2022-09-09T00:42:43;14.97;81.83
51878;SHT31;37911;51.526;11.536;2022-09-09T00:45:59;14.93;82.25
51878;SHT31;37911;51.526;11.536;2022-09-09T00:49:15;14.97;81.99
51878;SHT31;37911;51.526;11.536;2022-09-09T00:52:32;14.90;82.34
51878;SHT31;37911;51.526;11.536;2022-09-09T00:55:43;14.77;82.61
51878;SHT31;37911;51.526;11.536;2022-09-09T00:59:02;14.75;82.83
51878;SHT31;37911;51.526;11.536;2022-09-09T01:02:18;14.73;82.87
51878;SHT31;37911;51.526;11.536;2022-09-09T01:05:33;14.71;83.09
51878;SHT31;37911;51.526;11.536;2022-09-09T01:08:56;14.71;83.01
51878;SHT31;37911;51.526;11.536;2022-09-09T01:12:09;14.69;82.97
51878;SHT31;37911;51.526;11.536;2022-09-09T01:15:18;14.68;83.03
51878;SHT31;37911;51.526;11.536;2022-09-09T01:18:28;14.59;83.34
51878;SHT31;37911;51.526;11.536;2022-09-09T01:21:39;14.59;83.28
51878;SHT31;37911;51.526;11.536;2022-09-09T01:25:19;14.54;83.59
51878;SHT31;37911;51.526;11.536;2022-09-09T01:28:50;14.48;83.68
51878;SHT31;37911;51.526;11.536;2022-09-09T01:32:02;14.48;83.24
51878;SHT31;37911;51.526;11.536;2022-09-09T01:35:08;14.55;83.04
51878;SHT31;37911;51.526;11.536;2022-09-09T01:38:14;14.62;82.46
51878;SHT31;37911;51.526;11.536;2022-09-09T01:41:19;14.66;82.56
51878;SHT31;37911;51.526;11.536;2022-09-09T01:44:35;14.68;82.22
51878;SHT31;37911;51.526;11.536;2022-09-09T01:47:40;14.65;82.38
51878;SHT31;37911;51.526;11.536;2022-09-09T01:50:54;14.69;82.34
51878;SHT31;37911;51.526;11.536;2022-09-09T01:53:58;14.62;82.47
51878;SHT31;37911;51.526;11.536;2022-09-09T01:57:06;14.62;82.69
51878;SHT31;37911;51.526;11.536;2022-09-09T02:00:17;14.59;82.82
51878;SHT31;37911;51.526;11.536;2022-09-09T02:03:28;14.62;82.58
51878;SHT31;37911;51.526;11.536;2022-09-09T02:06:40;14.64;82.65
51878;SHT31;37911;51.526;11.536;2022-09-09T02:09:58;14.64;82.62
51878;SHT31;37911;51.526;11.536;2022-09-09T02:13:08;14.55;82.74
51878;SHT31;37911;51.526;11.536;2022-09-09T02:16:21;14.55;82.67
51878;SHT31;37911;51.526;11.536;2022-09-09T02:19:29;14.54;82.74
51878;SHT31;37911;51.526;11.536;2022-09-09T02:22:56;14.55;82.63
51878;SHT31;37911;51.526;11.536;2022-09-09T02:26:01;14.54;82.15
51878;SHT31;37911;51.526;11.536;2022-09-09T02:29:08;14.52;82.39
51878;SHT31;37911;51.526;11.536;2022-09-09T02:32:19;14.51;82.45
51878;SHT31;37911;51.526;11.536;2022-09-09T02:35:23;14.49;82.61
51878;SHT31;37911;51.526;11.536;2022-09-09T02:38:32;14.39;82.75
51878;SHT31;37911;51.526;11.536;2022-09-09T02:41:43;14.31;82.94
51878;SHT31;37911;51.526;11.536;2022-09-09T02:44:48;14.22;83.37
51878;SHT31;37911;51.526;11.536;2022-09-09T02:48:00;14.18;83.60
51878;SHT31;37911;51.526;11.536;2022-09-09T02:51:10;14.15;83.39
51878;SHT31;37911;51.526;11.536;2022-09-09T02:54:23;14.05;83.76
51878;SHT31;37911;51.526;11.536;2022-09-09T02:57:32;13.98;84.03
51878;SHT31;37911;51.526;11.536;2022-09-09T03:00:39;13.94;84.00
51878;SHT31;37911;51.526;11.536;2022-09-09T03:03:45;13.85;84.28
51878;SHT31;37911;51.526;11.536;2022-09-09T03:06:51;13.75;84.65
51878;SHT31;37911;51.526;11.536;2022-09-09T03:09:55;13.74;84.65
51878;SHT31;37911;51.526;11.536;2022-09-09T03:13:01;13.74;84.35
51878;SHT31;37911;51.526;11.536;2022-09-09T03:16:08;13.77;84.42
51878;SHT31;37911;51.526;11.536;2022-09-09T03:19:20;13.73;84.44
51878;SHT31;37911;51.526;11.536;2022-09-09T03:22:25;13.73;84.34
51878;SHT31;37911;51.526;11.536;2022-09-09T03:25:32;13.71;84.40
51878;SHT31;37911;51.526;11.536;2022-09-09T03:28:36;13.67;84.68
51878;SHT31;37911;51.526;11.536;2022-09-09T03:31:40;13.63;84.53
51878;SHT31;37911;51.526;11.536;2022-09-09T03:34:46;13.63;84.76
51878;SHT31;37911;51.526;11.536;2022-09-09T03:37:50;13.57;84.91
51878;SHT31;37911;51.526;11.536;2022-09-09T03:40:56;13.50;85.09
51878;SHT31;37911;51.526;11.536;2022-09-09T03:44:01;13.46;85.56
51878;SHT31;37911;51.526;11.536;2022-09-09T03:47:10;13.51;85.53
51878;SHT31;37911;51.526;11.536;2022-09-09T03:50:17;13.56;85.30
51878;SHT31;37911;51.526;11.536;2022-09-09T03:53:23;13.56;85.12
51878;SHT31;37911;51.526;11.536;2022-09-09T03:56:27;13.53;85.28
51878;SHT31;37911;51.526;11.536;2022-09-09T03:59:31;13.60;85.19
51878;SHT31;37911;51.526;11.536;2022-09-09T04:02:35;13.61;85.22
51878;SHT31;37911;51.526;11.536;2022-09-09T04:05:42;13.57;85.35
51878;SHT31;37911;51.526;11.536;2022-09-09T04:08:45;13.54;85.49
51878;SHT31;37911;51.526;11.536;2022-09-09T04:11:49;13.57;85.44
51878;SHT31;37911;51.526;11.536;2022-09-09T04:14:53;13.60;85.44
51878;SHT31;37911;51.526;11.536;2022-09-09T04:17:57;13.56;85.59
51878;SHT31;37911;51.526;11.536;2022-09-09T04:21:04;13.50;85.67
51878;SHT31;37911;51.526;11.536;2022-09-09T04:24:09;13.47;85.35
51878;SHT31;37911;51.526;11.536;2022-09-09T04:27:13;13.40;85.87
51878;SHT31;37911;51.526;11.536;2022-09-09T04:30:16;13.27;86.35
51878;SHT31;37911;51.526;11.536;2022-09-09T04:33:20;13.35;86.48
51878;SHT31;37911;51.526;11.536;2022-09-09T04:36:29;13.43;86.03
51878;SHT31;37911;51.526;11.536;2022-09-09T04:39:36;13.47;85.90
51878;SHT31;37911;51.526;11.536;2022-09-09T04:42:40;13.39;86.26
51878;SHT31;37911;51.526;11.536;2022-09-09T04:45:48;13.36;86.52
51878;SHT31;37911;51.526;11.536;2022-09-09T04:48:54;13.40;86.58
51878;SHT31;37911;51.526;11.536;2022-09-09T04:52:05;13.33;86.44
51878;SHT31;37911;51.526;11.536;2022-09-09T04:55:10;13.40;86.45
51878;SHT31;37911;51.526;11.536;2022-09-09T04:58:17;13.39;86.36
51878;SHT31;37911;51.526;11.536;2022-09-09T05:01:23;13.47;86.16
51878;SHT31;37911;51.526;11.536;2022-09-09T05:04:32;13.44;86.20
51878;SHT31;37911;51.526;11.536;2022-09-09T05:07:39;13.46;86.24
51878;SHT31;37911;51.526;11.536;2022-09-09T05:10:42;13.47;86.28
51878;SHT31;37911;51.526;11.536;2022-09-09T05:13:47;13.54;86.25
51878;SHT31;37911;51.526;11.536;2022-09-09T05:16:51;13.49;86.59
51878;SHT31;37911;51.526;11.536;2022-09-09T05:19:57;13.56;86.85
51878;SHT31;37911;51.526;11.536;2022-09-09T05:23:03;13.59;86.46
51878;SHT31;37911;51.526;11.536;2022-09-09T05:26:09;13.61;86.43
51878;SHT31;37911;51.526;11.536;2022-09-09T05:29:14;13.70;86.59
51878;SHT31;37911;51.526;11.536;2022-09-09T05:32:20;13.77;86.64
51878;SHT31;37911;51.526;11.536;2022-09-09T05:35:23;13.82;86.64
51878;SHT31;37911;51.526;11.536;2022-09-09T05:38:30;13.95;86.51
51878;SHT31;37911;51.526;11.536;2022-09-09T05:41:34;14.01;86.66
51878;SHT31;37911;51.526;11.536;2022-09-09T05:44:38;14.08;87.18
51878;SHT31;37911;51.526;11.536;2022-09-09T05:47:42;14.15;87.16
51878;SHT31;37911;51.526;11.536;2022-09-09T05:50:52;14.26;87.27
51878;SHT31;37911;51.526;11.536;2022-09-09T05:53:59;14.35;87.23
51878;SHT31;37911;51.526;11.536;2022-09-09T05:57:05;14.41;86.52
51878;SHT31;37911;51.526;11.536;2022-09-09T06:00:10;14.48;86.23
51878;SHT31;37911;51.526;11.536;2022-09-09T06:03:17;14.54;85.81
51878;SHT31;37911;51.526;11.536;2022-09-09T06:06:26;14.52;85.71
51878;SHT31;37911;51.526;11.536;2022-09-09T06:09:35;14.66;85.93
51878;SHT31;37911;51.526;11.536;2022-09-09T06:12:38;14.69;85.94
51878;SHT31;37911;51.526;11.536;2022-09-09T06:15:49;14.75;85.93
51878;SHT31;37911;51.526;11.536;2022-09-09T06:18:54;14.82;85.81
51878;SHT31;37911;51.526;11.536;2022-09-09T06:22:00;14.90;85.82
51878;SHT31;37911;51.526;11.536;2022-09-09T06:25:09;14.90;86.00
51878;SHT31;37911;51.526;11.536;2022-09-09T06:28:13;15.03;85.41
51878;SHT31;37911;51.526;11.536;2022-09-09T06:31:21;15.14;84.94
51878;SHT31;37911;51.526;11.536;2022-09-09T06:34:25;15.19;85.00
51878;SHT31;37911;51.526;11.536;2022-09-09T06:37:31;15.29;84.89
51878;SHT31;37911;51.526;11.536;2022-09-09T06:40:39;15.34;84.57
51878;SHT31;37911;51.526;11.536;2022-09-09T06:43:43;15.43;84.73
51878;SHT31;37911;51.526;11.536;2022-09-09T06:46:47;15.53;84.85
51878;SHT31;37911;51.526;11.536;2022-09-09T06:49:50;15.64;84.61
51878;SHT31;37911;51.526;11.536;2022-09-09T06:52:54;15.80;84.27
51878;SHT31;37911;51.526;11.536;2022-09-09T06:56:18;15.97;84.01
51878;SHT31;37911;51.526;11.536;2022-09-09T06:59:23;16.06;82.23
51878;SHT31;37911;51.526;11.536;2022-09-09T07:02:29;16.15;82.14
51878;SHT31;37911;51.526;11.536;2022-09-09T07:05:32;16.25;82.08
51878;SHT31;37911;51.526;11.536;2022-09-09T07:08:36;16.41;81.93
51878;SHT31;37911;51.526;11.536;2022-09-09T07:11:44;16.55;81.63
51878;SHT31;37911;51.526;11.536;2022-09-09T07:14:48;16.79;80.94
51878;SHT31;37911;51.526;11.536;2022-09-09T07:17:51;16.96;80.59
51878;SHT31;37911;51.526;11.536;2022-09-09T07:20:56;17.47;78.72
51878;SHT31;37911;51.526;11.536;2022-09-09T07:24:01;18.30;76.98
51878;SHT31;37911;51.526;11.536;2022-09-09T07:27:10;19.28;71.74
51878;SHT31;37911;51.526;11.536;2022-09-09T07:30:14;20.09;68.28
51878;SHT31;37911;51.526;11.536;2022-09-09T07:33:20;20.67;66.00
51878;SHT31;37911;51.526;11.536;2022-09-09T07:36:25;21.29;64.77
51878;SHT31;37911;51.526;11.536;2022-09-09T07:39:29;21.25;61.86
51878;SHT31;37911;51.526;11.536;2022-09-09T07:42:35;21.59;60.83
51878;SHT31;37911;51.526;11.536;2022-09-09T07:45:38;21.76;60.37
51878;SHT31;37911;51.526;11.536;2022-09-09T07:48:44;21.53;60.73
51878;SHT31;37911;51.526;11.536;2022-09-09T07:51:52;21.28;61.02
51878;SHT31;37911;51.526;11.536;2022-09-09T07:54:56;20.71;62.48
51878;SHT31;37911;51.526;11.536;2022-09-09T07:58:03;20.77;63.97
51878;SHT31;37911;51.526;11.536;2022-09-09T08:01:08;21.66;61.34
51878;SHT31;37911;51.526;11.536;2022-09-09T08:04:14;22.13;58.58
51878;SHT31;37911;51.526;11.536;2022-09-09T08:07:20;22.71;57.86
51878;SHT31;37911;51.526;11.536;2022-09-09T08:10:28;22.96;56.15
51878;SHT31;37911;51.526;11.536;2022-09-09T08:13:36;22.01;58.76
51878;SHT31;37911;51.526;11.536;2022-09-09T08:16:42;22.14;58.54
51878;SHT31;37911;51.526;11.536;2022-09-09T08:19:48;22.83;56.96
51878;SHT31;37911;51.526;11.536;2022-09-09T08:22:56;23.49;55.97
51878;SHT31;37911;51.526;11.536;2022-09-09T08:26:03;23.49;56.62
51878;SHT31;37911;51.526;11.536;2022-09-09T08:29:11;23.53;54.38
51878;SHT31;37911;51.526;11.536;2022-09-09T08:32:15;23.69;54.59
51878;SHT31;37911;51.526;11.536;2022-09-09T08:35:19;23.60;54.28
51878;SHT31;37911;51.526;11.536;2022-09-09T08:38:23;23.90;53.56
51878;SHT31;37911;51.526;11.536;2022-09-09T08:41:57;23.67;55.79
51878;SHT31;37911;51.526;11.536;2022-09-09T08:45:23;23.79;54.28
51878;SHT31;37911;51.526;11.536;2022-09-09T08:48:43;24.42;54.12
51878;SHT31;37911;51.526;11.536;2022-09-09T08:51:48;24.38;54.07
51878;SHT31;37911;51.526;11.536;2022-09-09T08:54:57;24.84;51.34
51878;SHT31;37911;51.526;11.536;2022-09-09T08:58:08;25.06;51.62
51878;SHT31;37911;51.526;11.536;2022-09-09T09:01:26;25.32;51.95
51878;SHT31;37911;51.526;11.536;2022-09-09T09:04:45;25.12;51.54
51878;SHT31;37911;51.526;11.536;2022-09-09T09:08:01;25.53;50.99
51878;SHT31;37911;51.526;11.536;2022-09-09T09:11:07;24.72;52.01
51878;SHT31;37911;51.526;11.536;2022-09-09T09:14:17;25.15;52.88
51878;SHT31;37911;51.526;11.536;2022-09-09T09:17:28;25.16;52.03
51878;SHT31;37911;51.526;11.536;2022-09-09T09:20:44;25.11;50.37
51878;SHT31;37911;51.526;11.536;2022-09-09T09:23:54;24.91;51.67
51878;SHT31;37911;51.526;11.536;2022-09-09T09:27:09;25.01;52.25
51878;SHT31;37911;51.526;11.536;2022-09-09T09:30:16;24.67;52.34
51878;SHT31;37911;51.526;11.536;2022-09-09T09:33:25;24.01;55.12
51878;SHT31;37911;51.526;11.536;2022-09-09T09:36:39;24.74;51.79
51878;SHT31;37911;51.526;11.536;2022-09-09T09:39:47;24.45;52.98
51878;SHT31;37911;51.526;11.536;2022-09-09T09:42:52;24.84;52.82
51878;SHT31;37911;51.526;11.536;2022-09-09T09:45:57;25.27;51.87
51878;SHT31;37911;51.526;11.536;2022-09-09T09:49:05;25.25;51.22
51878;SHT31;37911;51.526;11.536;2022-09-09T09:52:17;24.86;52.56
51878;SHT31;37911;51.526;11.536;2022-09-09T09:55:24;24.09;54.39
51878;SHT31;37911;51.526;11.536;2022-09-09T09:58:32;23.79;54.96
51878;SHT31;37911;51.526;11.536;2022-09-09T10:01:40;23.35;56.14
51878;SHT31;37911;51.526;11.536;2022-09-09T10:04:47;23.66;55.50
51878;SHT31;37911;51.526;11.536;2022-09-09T10:08:03;24.28;52.80
51878;SHT31;37911;51.526;11.536;2022-09-09T10:11:17;24.74;52.65
51878;SHT31;37911;51.526;11.536;2022-09-09T10:14:31;25.35;51.06
51878;SHT31;37911;51.526;11.536;2022-09-09T10:17:40;25.01;52.79
51878;SHT31;37911;51.526;11.536;2022-09-09T10:20:56;24.27;53.45
51878;SHT31;37911;51.526;11.536;2022-09-09T10:27:38;23.62;57.87
51878;SHT31;37911;51.526;11.536;2022-09-09T10:30:51;23.01;59.38
51878;SHT31;37911;51.526;11.536;2022-09-09T10:34:03;22.44;61.94
51878;SHT31;37911;51.526;11.536;2022-09-09T10:37:19;22.18;65.32
51878;SHT31;37911;51.526;11.536;2022-09-09T10:40:32;22.43;63.94
51878;SHT31;37911;51.526;11.536;2022-09-09T10:43:50;23.43;66.14
51878;SHT31;37911;51.526;11.536;2022-09-09T10:47:15;23.90;62.29
51878;SHT31;37911;51.526;11.536;2022-09-09T10:50:35;23.30;59.78
51878;SHT31;37911;51.526;11.536;2022-09-09T10:53:52;23.42;61.76
51878;SHT31;37911;51.526;11.536;2022-09-09T10:56:59;23.67;59.12
51878;SHT31;37911;51.526;11.536;2022-09-09T11:00:13;24.38;58.80
51878;SHT31;37911;51.526;11.536;2022-09-09T11:03:20;24.84;56.23
51878;SHT31;37911;51.526;11.536;2022-09-09T11:06:29;25.08;56.00
51878;SHT31;37911;51.526;11.536;2022-09-09T11:09:43;25.50;53.94
51878;SHT31;37911;51.526;11.536;2022-09-09T11:12:54;25.78;53.44
51878;SHT31;37911;51.526;11.536;2022-09-09T11:16:10;25.67;50.33
51878;SHT31;37911;51.526;11.536;2022-09-09T11:19:21;25.73;49.64
51878;SHT31;37911;51.526;11.536;2022-09-09T11:22:29;26.10;48.48
51878;SHT31;37911;51.526;11.536;2022-09-09T11:25:39;26.20;47.82
51878;SHT31;37911;51.526;11.536;2022-09-09T11:28:55;25.84;45.93
51878;SHT31;37911;51.526;11.536;2022-09-09T11:32:12;26.20;46.10
51878;SHT31;37911;51.526;11.536;2022-09-09T11:35:30;26.25;47.32
51878;SHT31;37911;51.526;11.536;2022-09-09T11:38:41;26.14;46.37
51878;SHT31;37911;51.526;11.536;2022-09-09T11:41:51;25.60;47.77
51878;SHT31;37911;51.526;11.536;2022-09-09T11:44:54;25.83;47.99
51878;SHT31;37911;51.526;11.536;2022-09-09T11:47:59;25.71;47.02
51878;SHT31;37911;51.526;11.536;2022-09-09T11:51:05;26.04;46.06
51878;SHT31;37911;51.526;11.536;2022-09-09T11:54:28;26.48;45.28
51878;SHT31;37911;51.526;11.536;2022-09-09T11:57:36;26.86;44.30
51878;SHT31;37911;51.526;11.536;2022-09-09T12:00:41;26.44;45.39
51878;SHT31;37911;51.526;11.536;2022-09-09T12:03:47;25.96;45.61
51878;SHT31;37911;51.526;11.536;2022-09-09T12:06:54;25.74;45.84
51878;SHT31;37911;51.526;11.536;2022-09-09T12:10:01;26.10;46.64
51878;SHT31;37911;51.526;11.536;2022-09-09T12:13:15;26.67;45.10
51878;SHT31;37911;51.526;11.536;2022-09-09T12:16:29;26.47;44.67
51878;SHT31;37911;51.526;11.536;2022-09-09T12:19:34;26.73;43.25
51878;SHT31;37911;51.526;11.536;2022-09-09T12:22:45;26.75;42.48
51878;SHT31;37911;51.526;11.536;2022-09-09T12:25:59;26.52;42.73
51878;SHT31;37911;51.526;11.536;2022-09-09T12:29:20;26.68;41.00
51878;SHT31;37911;51.526;11.536;2022-09-09T12:32:25;26.62;41.05
51878;SHT31;37911;51.526;11.536;2022-09-09T12:35:31;26.65;40.62
51878;SHT31;37911;51.526;11.536;2022-09-09T12:38:36;26.58;40.42
51878;SHT31;37911;51.526;11.536;2022-09-09T12:41:39;26.38;40.87
51878;SHT31;37911;51.526;11.536;2022-09-09T12:44:55;26.05;41.23
51878;SHT31;37911;51.526;11.536;2022-09-09T12:48:00;25.45;43.67
51878;SHT31;37911;51.526;11.536;2022-09-09T12:51:06;24.95;44.53
51878;SHT31;37911;51.526;11.536;2022-09-09T12:54:19;24.58;45.54
51878;SHT31;37911;51.526;11.536;2022-09-09T12:57:24;24.52;45.38
51878;SHT31;37911;51.526;11.536;2022-09-09T13:00:31;24.42;47.08
51878;SHT31;37911;51.526;11.536;2022-09-09T13:03:42;24.55;45.97
51878;SHT31;37911;51.526;11.536;2022-09-09T13:06:47;24.60;46.37
51878;SHT31;37911;51.526;11.536;2022-09-09T13:09:52;25.13;45.57
51878;SHT31;37911;51.526;11.536;2022-09-09T13:12:55;25.62;45.00
51878;SHT31;37911;51.526;11.536;2022-09-09T13:16:02;25.66;42.79
51878;SHT31;37911;51.526;11.536;2022-09-09T13:19:13;25.49;43.51
51878;SHT31;37911;51.526;11.536;2022-09-09T13:22:21;25.40;42.90
51878;SHT31;37911;51.526;11.536;2022-09-09T13:25:26;25.29;43.53
51878;SHT31;37911;51.526;11.536;2022-09-09T13:28:30;25.29;43.67
51878;SHT31;37911;51.526;11.536;2022-09-09T13:31:38;25.33;42.93
51878;SHT31;37911;51.526;11.536;2022-09-09T13:34:50;25.09;42.83
51878;SHT31;37911;51.526;11.536;2022-09-09T13:37:54;25.09;43.99
51878;SHT31;37911;51.526;11.536;2022-09-09T13:41:00;25.57;42.22
51878;SHT31;37911;51.526;11.536;2022-09-09T13:44:04;25.83;41.93
51878;SHT31;37911;51.526;11.536;2022-09-09T13:47:20;25.73;43.21
51878;SHT31;37911;51.526;11.536;2022-09-09T13:50:26;25.83;42.04
51878;SHT31;37911;51.526;11.536;2022-09-09T13:53:30;25.78;42.87
51878;SHT31;37911;51.526;11.536;2022-09-09T13:56:33;26.00;40.63
51878;SHT31;37911;51.526;11.536;2022-09-09T13:59:37;26.02;41.74
51878;SHT31;37911;51.526;11.536;2022-09-09T14:02:43;26.13;40.51
51878;SHT31;37911;51.526;11.536;2022-09-09T14:05:47;26.21;38.67
51878;SHT31;37911;51.526;11.536;2022-09-09T14:08:51;26.13;37.63
51878;SHT31;37911;51.526;11.536;2022-09-09T14:11:55;25.90;38.65
51878;SHT31;37911;51.526;11.536;2022-09-09T14:14:58;25.94;39.45
51878;SHT31;37911;51.526;11.536;2022-09-09T14:18:04;25.62;37.79
51878;SHT31;37911;51.526;11.536;2022-09-09T14:21:08;25.66;36.31
51878;SHT31;37911;51.526;11.536;2022-09-09T14:24:11;25.46;37.17
51878;SHT31;37911;51.526;11.536;2022-09-09T14:27:16;25.11;36.79
51878;SHT31;37911;51.526;11.536;2022-09-09T14:30:20;25.15;37.26
51878;SHT31;37911;51.526;11.536;2022-09-09T14:33:26;25.01;38.40
51878;SHT31;37911;51.526;11.536;2022-09-09T14:36:29;24.79;38.52
51878;SHT31;37911;51.526;11.536;2022-09-09T14:39:52;24.81;38.85
51878;SHT31;37911;51.526;11.536;2022-09-09T14:42:56;25.12;38.24
51878;SHT31;37911;51.526;11.536;2022-09-09T14:46:04;25.37;39.12
51878;SHT31;37911;51.526;11.536;2022-09-09T14:49:11;25.23;38.62
51878;SHT31;37911;51.526;11.536;2022-09-09T14:52:15;25.11;40.00
51878;SHT31;37911;51.526;11.536;2022-09-09T14:55:19;24.99;40.17
51878;SHT31;37911;51.526;11.536;2022-09-09T14:58:22;24.99;41.93
51878;SHT31;37911;51.526;11.536;2022-09-09T15:01:26;25.11;41.72
51878;SHT31;37911;51.526;11.536;2022-09-09T15:04:32;25.05;40.25
51878;SHT31;37911;51.526;11.536;2022-09-09T15:07:35;24.74;41.28
51878;SHT31;37911;51.526;11.536;2022-09-09T15:10:39;24.75;41.84
51878;SHT31;37911;51.526;11.536;2022-09-09T15:13:45;24.64;40.42
51878;SHT31;37911;51.526;11.536;2022-09-09T15:16:48;24.78;40.85
51878;SHT31;37911;51.526;11.536;2022-09-09T15:19:54;24.94;41.38
51878;SHT31;37911;51.526;11.536;2022-09-09T15:22:57;24.91;39.62
51878;SHT31;37911;51.526;11.536;2022-09-09T15:26:02;24.68;40.26
51878;SHT31;37911;51.526;11.536;2022-09-09T15:29:06;24.65;39.79
51878;SHT31;37911;51.526;11.536;2022-09-09T15:32:10;24.58;40.20
51878;SHT31;37911;51.526;11.536;2022-09-09T15:35:16;24.52;41.78
51878;SHT31;37911;51.526;11.536;2022-09-09T15:38:19;24.32;41.26
51878;SHT31;37911;51.526;11.536;2022-09-09T15:41:24;23.99;40.34
51878;SHT31;37911;51.526;11.536;2022-09-09T15:44:28;24.00;41.26
51878;SHT31;37911;51.526;11.536;2022-09-09T15:47:31;23.93;41.20
51878;SHT31;37911;51.526;11.536;2022-09-09T15:50:37;23.92;39.39
51878;SHT31;37911;51.526;11.536;2022-09-09T15:53:41;23.83;39.12
51878;SHT31;37911;51.526;11.536;2022-09-09T15:56:46;23.63;38.83
51878;SHT31;37911;51.526;11.536;2022-09-09T15:59:50;23.50;39.45
51878;SHT31;37911;51.526;11.536;2022-09-09T16:02:53;23.43;40.32
51878;SHT31;37911;51.526;11.536;2022-09-09T16:05:59;23.26;39.83
51878;SHT31;37911;51.526;11.536;2022-09-09T16:09:04;23.14;39.84
51878;SHT31;37911;51.526;11.536;2022-09-09T16:12:08;23.06;40.57
51878;SHT31;37911;51.526;11.536;2022-09-09T16:15:13;22.99;41.11
51878;SHT31;37911;51.526;11.536;2022-09-09T16:18:17;22.87;41.79
51878;SHT31;37911;51.526;11.536;2022-09-09T16:21:25;22.71;41.85
51878;SHT31;37911;51.526;11.536;2022-09-09T16:24:29;22.68;42.46
51878;SHT31;37911;51.526;11.536;2022-09-09T16:27:33;22.61;42.34
51878;SHT31;37911;51.526;11.536;2022-09-09T16:30:36;22.47;43.42
51878;SHT31;37911;51.526;11.536;2022-09-09T16:33:40;22.51;43.11
51878;SHT31;37911;51.526;11.536;2022-09-09T16:36:47;22.47;44.22
51878;SHT31;37911;51.526;11.536;2022-09-09T16:39:51;22.44;43.28
51878;SHT31;37911;51.526;11.536;2022-09-09T16:42:55;22.40;43.81
51878;SHT31;37911;51.526;11.536;2022-09-09T16:45:58;22.31;43.94
51878;SHT31;37911;51.526;11.536;2022-09-09T16:49:04;22.33;44.35
51878;SHT31;37911;51.526;11.536;2022-09-09T16:52:12;22.20;44.80
51878;SHT31;37911;51.526;11.536;2022-09-09T16:55:15;22.16;45.04
51878;SHT31;37911;51.526;11.536;2022-09-09T16:58:20;22.11;45.46
51878;SHT31;37911;51.526;11.536;2022-09-09T17:01:24;22.06;45.36
51878;SHT31;37911;51.526;11.536;2022-09-09T17:04:28;21.99;45.32
51878;SHT31;37911;51.526;11.536;2022-09-09T17:07:35;21.82;45.68
51878;SHT31;37911;51.526;11.536;2022-09-09T17:10:41;21.79;45.35
51878;SHT31;37911;51.526;11.536;2022-09-09T17:13:46;21.66;45.16
51878;SHT31;37911;51.526;11.536;2022-09-09T17:16:50;21.62;45.67
51878;SHT31;37911;51.526;11.536;2022-09-09T17:19:53;21.56;45.67
51878;SHT31;37911;51.526;11.536;2022-09-09T17:22:59;21.50;45.47
51878;SHT31;37911;51.526;11.536;2022-09-09T17:26:04;21.45;46.05
51878;SHT31;37911;51.526;11.536;2022-09-09T17:29:08;21.39;46.77
51878;SHT31;37911;51.526;11.536;2022-09-09T17:32:11;21.34;47.30
51878;SHT31;37911;51.526;11.536;2022-09-09T17:35:15;21.29;48.01
51878;SHT31;37911;51.526;11.536;2022-09-09T17:38:30;21.18;48.40
51878;SHT31;37911;51.526;11.536;2022-09-09T17:41:36;21.08;48.68
51878;SHT31;37911;51.526;11.536;2022-09-09T17:44:39;20.94;49.71
51878;SHT31;37911;51.526;11.536;2022-09-09T17:47:42;20.88;50.56
51878;SHT31;37911;51.526;11.536;2022-09-09T17:50:46;20.75;51.18
51878;SHT31;37911;51.526;11.536;2022-09-09T17:53:52;20.70;51.70
51878;SHT31;37911;51.526;11.536;2022-09-09T17:56:56;20.55;52.85
51878;SHT31;37911;51.526;11.536;2022-09-09T18:00:00;20.44;53.36
51878;SHT31;37911;51.526;11.536;2022-09-09T18:03:14;20.40;53.89
51878;SHT31;37911;51.526;11.536;2022-09-09T18:06:19;20.33;54.69
51878;SHT31;37911;51.526;11.536;2022-09-09T18:09:26;20.32;54.65
51878;SHT31;37911;51.526;11.536;2022-09-09T18:12:30;20.32;54.68
51878;SHT31;37911;51.526;11.536;2022-09-09T18:15:36;20.24;55.07
51878;SHT31;37911;51.526;11.536;2022-09-09T18:18:39;20.24;54.69
51878;SHT31;37911;51.526;11.536;2022-09-09T18:21:43;20.95;56.19
51878;SHT31;37911;51.526;11.536;2022-09-09T18:24:49;21.62;52.06
51878;SHT31;37911;51.526;11.536;2022-09-09T18:27:52;22.03;51.00
51878;SHT31;37911;51.526;11.536;2022-09-09T18:30:56;23.35;48.43
51878;SHT31;37911;51.526;11.536;2022-09-09T18:34:01;25.11;43.09
51878;SHT31;37911;51.526;11.536;2022-09-09T18:37:05;24.38;43.84
51878;SHT31;37911;51.526;11.536;2022-09-09T18:40:12;24.86;45.52
51878;SHT31;37911;51.526;11.536;2022-09-09T18:43:16;24.51;43.93
51878;SHT31;37911;51.526;11.536;2022-09-09T18:46:20;24.96;43.17
51878;SHT31;37911;51.526;11.536;2022-09-09T18:49:24;24.69;43.98
51878;SHT31;37911;51.526;11.536;2022-09-09T18:52:28;23.74;45.68
51878;SHT31;37911;51.526;11.536;2022-09-09T18:55:37;24.11;45.50
51878;SHT31;37911;51.526;11.536;2022-09-09T18:58:41;24.18;44.97
51878;SHT31;37911;51.526;11.536;2022-09-09T19:01:45;24.32;44.28
51878;SHT31;37911;51.526;11.536;2022-09-09T19:04:49;23.81;45.22
51878;SHT31;37911;51.526;11.536;2022-09-09T19:07:52;23.25;46.93
51878;SHT31;37911;51.526;11.536;2022-09-09T19:10:59;22.75;47.65
51878;SHT31;37911;51.526;11.536;2022-09-09T19:14:05;22.14;49.20
51878;SHT31;37911;51.526;11.536;2022-09-09T19:17:09;21.63;50.86
51878;SHT31;37911;51.526;11.536;2022-09-09T19:20:13;21.22;51.99
51878;SHT31;37911;51.526;11.536;2022-09-09T19:23:16;20.99;52.82
51878;SHT31;37911;51.526;11.536;2022-09-09T19:26:22;20.65;53.60
51878;SHT31;37911;51.526;11.536;2022-09-09T19:29:28;20.48;54.20